Time;durP1;ratioP1;P1;durP2;ratioP2;P2;SDS_P1;SDS_P2;PMS_P1;PMS_P2;Temp;Humidity;BMP_temperature;BMP_pressure;BME280_temperature;BME280_humidity;BME280_pressure;Samples;Min_cycle;Max_cycle;Signal;HPM_P1;HPM_P2
2022/06/10 00:00:21;;;;;;;3.75;0.17;;;29.10;38.00;;;;;;5061088;28;20059;-54
2022/06/10 00:02:49;;;;;;;2.30;0.35;;;29.20;38.00;;;;;;5059816;28;20504;-46
2022/06/10 00:05:18;;;;;;;4.38;0.28;;;29.20;38.00;;;;;;5053790;28;20090;-46
2022/06/10 00:07:46;;;;;;;2.83;0.30;;;29.20;37.90;;;;;;5064786;28;20051;-51
2022/06/10 00:10:16;;;;;;;1.30;0.15;;;29.20;37.90;;;;;;5060284;28;20068;-49
2022/06/10 00:12:44;;;;;;;2.15;0.10;;;29.20;37.80;;;;;;5050669;28;20111;-48
2022/06/10 00:15:12;;;;;;;1.48;0.20;;;29.30;37.90;;;;;;5056133;28;20033;-47
2022/06/10 00:17:39;;;;;;;3.60;0.50;;;29.30;37.70;;;;;;5058911;28;20124;-45
2022/06/10 00:20:08;;;;;;;6.82;0.10;;;29.30;37.70;;;;;;5057467;28;20119;-49
2022/06/10 00:22:35;;;;;;;3.45;0.20;;;29.30;37.60;;;;;;5066006;28;20135;-46
2022/06/10 00:25:02;;;;;;;3.75;0.52;;;29.30;37.60;;;;;;5053811;28;20404;-50
2022/06/10 00:27:29;;;;;;;2.45;0.73;;;29.30;37.70;;;;;;5049059;28;20120;-52
2022/06/10 00:29:57;;;;;;;1.38;0.45;;;29.30;37.70;;;;;;5051536;28;20040;-50
2022/06/10 00:32:24;;;;;;;4.05;0.40;;;29.30;37.70;;;;;;5056370;28;20124;-48
2022/06/10 00:34:51;;;;;;;1.45;0.20;;;29.30;37.70;;;;;;5060527;28;20047;-50
2022/06/10 00:37:19;;;;;;;3.22;0.15;;;29.20;37.70;;;;;;5057116;28;20036;-49
2022/06/10 00:39:46;;;;;;;1.95;0.30;;;29.20;37.70;;;;;;5053432;28;20520;-51
2022/06/10 00:42:13;;;;;;;3.80;0.20;;;29.20;37.60;;;;;;5052194;28;20055;-51
2022/06/10 00:44:43;;;;;;;3.20;0.57;;;29.10;37.60;;;;;;5052120;28;20067;-50
2022/06/10 00:47:19;;;;;;;2.30;0.20;;;29.10;37.70;;;;;;5051329;28;20036;-46
2022/06/10 00:49:50;;;;;;;0.30;0.30;;;29.00;37.60;;;;;;5055198;28;20517;-50
2022/06/10 00:52:22;;;;;;;3.13;0.20;;;29.00;37.70;;;;;;5050695;28;20056;-50
2022/06/10 00:54:52;;;;;;;2.88;0.60;;;29.00;37.70;;;;;;5056769;28;20067;-51
2022/06/10 00:57:22;;;;;;;2.47;0.30;;;28.90;37.70;;;;;;5053717;28;20394;-50
2022/06/10 00:59:54;;;;;;;2.25;0.30;;;28.90;37.70;;;;;;5053224;28;20036;-52
2022/06/10 01:02:26;;;;;;;2.58;0.20;;;28.90;37.70;;;;;;5047560;28;20040;-49
2022/06/10 01:04:57;;;;;;;0.90;0.10;;;28.90;37.80;;;;;;5055660;28;20060;-52
2022/06/10 01:07:28;;;;;;;4.10;0.30;;;28.90;37.90;;;;;;5059461;28;20037;-52
2022/06/10 01:09:55;;;;;;;1.85;0.30;;;28.80;37.90;;;;;;5055074;28;20055;-46
2022/06/10 01:12:38;;;;;;;3.75;0.17;;;28.80;37.90;;;;;;5063730;28;20105;-51
2022/06/10 01:15:16;;;;;;;1.00;0.20;;;28.80;37.90;;;;;;5053589;28;20036;-52
2022/06/10 01:17:57;;;;;;;1.35;0.20;;;28.80;37.90;;;;;;5056303;28;20043;-49
2022/06/10 01:20:32;;;;;;;1.48;0.15;;;28.70;38.00;;;;;;5052561;28;20175;-51
2022/06/10 01:24:00;;;;;;;0.57;0.10;;;28.70;37.90;;;;;;5056994;28;20048;-49
2022/06/10 01:30:26;;;;;;;2.00;0.10;;;28.70;38.20;;;;;;5010453;28;20491;-49
2022/06/10 01:33:02;;;;;;;1.70;0.17;;;28.70;38.20;;;;;;4976198;28;20637;-53
2022/06/10 01:35:38;;;;;;;4.25;0.30;;;28.60;38.20;;;;;;4973645;28;20130;-52
2022/06/10 01:38:07;;;;;;;;;;;28.60;38.20;;;;;;4975878;28;20579;-50
2022/06/10 01:40:40;;;;;;;2.97;0.10;;;28.60;38.10;;;;;;4968935;28;19922;-49
2022/06/10 01:43:16;;;;;;;2.33;0.10;;;28.50;38.20;;;;;;4976541;28;20042;-51
2022/06/10 01:45:53;;;;;;;2.80;0.55;;;28.60;38.20;;;;;;4975588;28;20047;-53
2022/06/10 01:48:28;;;;;;;2.75;0.20;;;28.60;38.10;;;;;;4971891;28;20038;-51
2022/06/10 01:51:01;;;;;;;3.40;0.77;;;28.60;38.10;;;;;;4975102;28;20372;-48
2022/06/10 01:53:32;;;;;;;1.15;0.10;;;28.60;38.10;;;;;;4968008;28;20046;-53
2022/06/10 01:56:05;;;;;;;2.15;0.30;;;28.50;38.00;;;;;;4970857;28;20097;-51
2022/06/10 01:58:37;;;;;;;0.90;0.20;;;28.60;38.10;;;;;;4969533;28;20075;-51
2022/06/10 02:01:09;;;;;;;3.50;0.20;;;28.50;38.00;;;;;;5003800;28;20153;-48
2022/06/10 02:03:42;;;;;;;5.00;0.30;;;28.50;37.90;;;;;;5017908;28;20601;-52
2022/06/10 02:06:15;;;;;;;2.60;0.52;;;28.60;38.00;;;;;;5027057;28;20366;-50
2022/06/10 02:08:47;;;;;;;1.17;0.10;;;28.50;38.00;;;;;;5057171;28;20040;-51
2022/06/10 02:11:18;;;;;;;1.33;0.10;;;28.60;38.00;;;;;;5062800;28;20041;-49
2022/06/10 02:13:52;;;;;;;2.03;0.10;;;28.50;37.80;;;;;;5061923;28;20040;-50
2022/06/10 02:16:24;;;;;;;1.80;0.15;;;28.60;38.00;;;;;;5055845;28;20069;-50
2022/06/10 02:18:57;;;;;;;2.35;0.20;;;28.50;37.90;;;;;;5055926;28;20045;-51
2022/06/10 02:21:31;;;;;;;1.52;0.40;;;28.50;38.50;;;;;;5050749;28;20129;-50
2022/06/10 02:24:06;;;;;;;3.75;0.88;;;28.50;37.90;;;;;;5054570;28;20072;-52
2022/06/10 02:26:36;;;;;;;1.00;0.10;;;28.50;37.90;;;;;;5055621;28;20040;-49
2022/06/10 02:29:09;;;;;;;2.70;0.17;;;28.50;37.90;;;;;;5053680;28;20041;-51
2022/06/10 02:31:40;;;;;;;2.28;0.30;;;28.50;37.80;;;;;;5062183;28;20463;-53
2022/06/10 02:34:09;;;;;;;0.73;0.15;;;28.50;37.80;;;;;;5058370;28;20041;-50
2022/06/10 02:36:43;;;;;;;1.63;0.30;;;28.50;37.80;;;;;;5060895;28;20496;-50
2022/06/10 02:39:21;;;;;;;4.55;0.20;;;28.50;37.80;;;;;;5053227;28;20123;-52
2022/06/10 02:41:53;;;;;;;1.80;0.47;;;28.40;37.80;;;;;;5053727;28;20521;-52
2022/06/10 02:44:28;;;;;;;2.70;0.20;;;28.50;37.80;;;;;;5050226;28;20128;-50
2022/06/10 02:47:04;;;;;;;1.35;0.10;;;28.50;37.80;;;;;;5054552;28;20029;-52
2022/06/10 02:49:33;;;;;;;2.28;0.10;;;28.40;37.80;;;;;;5059015;28;20097;-55
2022/06/10 02:52:00;;;;;;;2.03;0.60;;;28.40;37.80;;;;;;5051341;28;20045;-49
2022/06/10 02:54:29;;;;;;;1.67;0.20;;;28.40;37.80;;;;;;5052948;28;20032;-49
2022/06/10 02:56:56;;;;;;;0.70;0.10;;;28.40;37.70;;;;;;5053555;28;20056;-52
2022/06/10 03:02:31;;;;;;;2.15;0.30;;;28.40;37.80;;;;;;5055729;28;20049;-53
2022/06/10 03:05:19;;;;;;;1.35;0.10;;;28.40;37.80;;;;;;5055924;28;20152;-52
2022/06/10 03:07:58;;;;;;;0.82;0.10;;;28.40;37.90;;;;;;5056116;28;20051;-49
2022/06/10 03:10:33;;;;;;;3.22;0.20;;;28.40;37.90;;;;;;5054573;28;20041;-50
2022/06/10 03:13:17;;;;;;;4.07;0.20;;;28.30;37.90;;;;;;5058054;28;20051;-53
2022/06/10 03:16:05;;;;;;;1.20;0.20;;;28.30;37.90;;;;;;5059239;28;20123;-49
2022/06/10 03:18:45;;;;;;;1.85;0.30;;;28.30;38.00;;;;;;5052194;28;20040;-51
2022/06/10 03:21:20;;;;;;;2.35;0.20;;;28.30;38.00;;;;;;5052722;28;20032;-49
2022/06/10 03:23:59;;;;;;;0.55;0.35;;;28.30;38.10;;;;;;5057099;28;20086;-50
2022/06/10 03:26:33;;;;;;;2.05;0.10;;;28.30;38.10;;;;;;5048925;28;20045;-54
2022/06/10 03:29:07;;;;;;;1.50;0.17;;;28.30;38.10;;;;;;5046818;28;20045;-49
2022/06/10 03:31:37;;;;;;;4.05;1.10;;;28.30;38.10;;;;;;5058797;28;20598;-53
2022/06/10 03:34:10;;;;;;;1.45;0.17;;;28.30;38.20;;;;;;5056274;28;20049;-53
2022/06/10 03:36:39;;;;;;;1.58;0.10;;;28.30;38.20;;;;;;5053023;28;20132;-55
2022/06/10 03:39:07;;;;;;;1.65;0.20;;;28.30;38.20;;;;;;5052532;28;20043;-48
2022/06/10 03:41:38;;;;;;;1.05;0.10;;;28.30;38.20;;;;;;5051882;28;20045;-53
2022/06/10 03:44:12;;;;;;;1.65;0.20;;;28.20;38.10;;;;;;5054378;28;20037;-48
2022/06/10 03:46:41;;;;;;;2.75;0.20;;;28.30;38.20;;;;;;5058336;28;20053;-48
2022/06/10 03:49:12;;;;;;;2.45;0.25;;;28.20;38.10;;;;;;5059261;28;20040;-48
2022/06/10 03:51:41;;;;;;;0.82;0.30;;;28.20;38.10;;;;;;5055828;28;20044;-49
2022/06/10 03:54:09;;;;;;;3.63;0.20;;;28.20;38.20;;;;;;5053269;28;20036;-52
2022/06/10 03:56:36;;;;;;;0.68;0.68;;;28.20;38.20;;;;;;5054383;28;20068;-49
2022/06/10 03:59:04;;;;;;;0.50;0.10;;;28.20;38.20;;;;;;5052610;28;20036;-50
2022/06/10 04:01:31;;;;;;;3.03;0.10;;;28.20;38.10;;;;;;5052643;28;20113;-51
2022/06/10 04:03:59;;;;;;;2.85;0.45;;;28.20;38.20;;;;;;5052102;28;20045;-50
2022/06/10 04:06:26;;;;;;;0.82;0.13;;;28.20;38.20;;;;;;5055628;28;20041;-50
2022/06/10 04:08:55;;;;;;;0.70;0.10;;;28.20;38.30;;;;;;5058474;28;20902;-54
2022/06/10 04:11:22;;;;;;;0.43;0.10;;;28.20;38.30;;;;;;5048127;28;20123;-51
2022/06/10 04:13:49;;;;;;;1.85;0.20;;;28.20;38.40;;;;;;5058610;28;20044;-51
2022/06/10 04:16:16;;;;;;;2.22;0.60;;;28.20;38.40;;;;;;5059669;28;20131;-48
2022/06/10 04:18:43;;;;;;;4.82;0.55;;;28.20;38.50;;;;;;5053687;28;20413;-48
2022/06/10 04:21:10;;;;;;;0.95;0.32;;;28.20;38.50;;;;;;5057836;28;20810;-48
2022/06/10 04:23:37;;;;;;;3.50;0.10;;;28.20;38.50;;;;;;5047335;28;20835;-52
2022/06/10 04:26:06;;;;;;;2.85;0.55;;;28.20;38.50;;;;;;5054285;28;20041;-50
2022/06/10 04:28:33;;;;;;;3.63;0.73;;;28.20;38.50;;;;;;5053006;28;20045;-52
2022/06/10 04:31:00;;;;;;;3.95;0.20;;;28.20;38.50;;;;;;5054758;28;20509;-52
2022/06/10 04:33:27;;;;;;;3.10;1.25;;;28.20;38.50;;;;;;5054273;28;20141;-51
2022/06/10 04:35:55;;;;;;;1.30;0.15;;;28.20;38.50;;;;;;5050603;28;20037;-51
2022/06/10 04:38:23;;;;;;;0.65;0.10;;;28.20;38.50;;;;;;5044797;28;20508;-48
2022/06/10 04:40:51;;;;;;;0.90;0.10;;;28.20;38.50;;;;;;5064271;28;20128;-49
2022/06/10 04:43:19;;;;;;;0.68;0.15;;;28.20;38.50;;;;;;5065905;28;20044;-48
2022/06/10 04:45:50;;;;;;;1.75;0.10;;;28.20;38.60;;;;;;5058555;28;20044;-51
2022/06/10 04:48:17;;;;;;;2.47;0.10;;;28.20;38.60;;;;;;5056422;28;20033;-49
2022/06/10 04:50:47;;;;;;;3.33;0.22;;;28.10;38.60;;;;;;5061386;28;20072;-48
2022/06/10 04:53:14;;;;;;;2.28;0.17;;;28.20;38.70;;;;;;5055391;28;20041;-50
2022/06/10 04:55:41;;;;;;;3.45;0.20;;;28.20;38.60;;;;;;5056956;28;20148;-50
2022/06/10 04:58:08;;;;;;;1.55;0.10;;;28.10;38.60;;;;;;5056867;28;20521;-49
2022/06/10 05:00:40;;;;;;;1.60;0.40;;;28.10;38.60;;;;;;5057957;28;20048;-50
2022/06/10 05:03:09;;;;;;;1.63;0.10;;;28.10;38.70;;;;;;5064605;28;20060;-49
2022/06/10 05:05:38;;;;;;;1.42;0.10;;;28.10;38.80;;;;;;5051591;28;20468;-49
2022/06/10 05:08:07;;;;;;;2.08;0.10;;;28.10;38.80;;;;;;5053215;28;20045;-49
2022/06/10 05:10:34;;;;;;;0.52;0.15;;;28.10;38.80;;;;;;5054787;28;20099;-52
2022/06/10 05:13:01;;;;;;;2.90;0.15;;;28.10;38.90;;;;;;5055015;28;20083;-50
2022/06/10 05:15:29;;;;;;;1.38;0.20;;;28.10;38.90;;;;;;5055389;28;20047;-51
2022/06/10 05:17:59;;;;;;;2.40;0.10;;;28.10;39.00;;;;;;5061591;28;20169;-46
2022/06/10 05:20:29;;;;;;;2.67;0.30;;;28.10;38.90;;;;;;5062587;28;20057;-51
2022/06/10 05:22:57;;;;;;;3.70;0.10;;;28.10;39.60;;;;;;5062612;28;20131;-46
2022/06/10 05:25:24;;;;;;;8.02;0.20;;;28.10;39.00;;;;;;5063200;28;20046;-49
2022/06/10 05:27:51;;;;;;;0.98;0.75;;;28.10;39.00;;;;;;5060845;28;20130;-47
2022/06/10 05:30:20;;;;;;;3.97;0.10;;;28.10;39.00;;;;;;5059626;28;20095;-49
2022/06/10 05:32:47;;;;;;;1.15;0.10;;;28.20;39.00;;;;;;5051205;28;20135;-49
2022/06/10 05:35:17;;;;;;;1.63;0.10;;;28.10;39.00;;;;;;5053258;28;20051;-47
2022/06/10 05:37:44;;;;;;;0.85;0.10;;;28.20;39.00;;;;;;5060718;28;20041;-51
2022/06/10 05:40:12;;;;;;;1.65;0.10;;;28.10;39.00;;;;;;5055998;28;20106;-46
2022/06/10 05:42:40;;;;;;;4.63;0.30;;;28.20;39.20;;;;;;5057630;28;20048;-47
2022/06/10 05:45:08;;;;;;;2.80;0.10;;;28.20;39.20;;;;;;5052615;28;20036;-54
2022/06/10 05:47:37;;;;;;;2.15;0.20;;;28.20;39.10;;;;;;5048999;28;20545;-52
2022/06/10 05:50:07;;;;;;;1.70;0.10;;;28.20;39.10;;;;;;5062189;28;20496;-49
2022/06/10 05:52:36;;;;;;;2.75;0.47;;;28.20;39.10;;;;;;5055390;28;20125;-48
2022/06/10 05:55:06;;;;;;;3.50;0.30;;;28.20;39.10;;;;;;5053107;28;20048;-47
2022/06/10 05:57:33;;;;;;;2.15;0.15;;;28.20;39.10;;;;;;5054772;28;20050;-50
2022/06/10 06:00:01;;;;;;;1.73;0.10;;;28.20;38.90;;;;;;5052963;28;20043;-49
2022/06/10 06:02:31;;;;;;;2.15;0.10;;;28.20;38.90;;;;;;5053967;28;20690;-49
2022/06/10 06:04:58;;;;;;;4.88;0.30;;;28.20;39.00;;;;;;5062912;28;20080;-50
2022/06/10 06:07:28;;;;;;;1.67;0.50;;;28.20;39.00;;;;;;5061629;28;20105;-49
2022/06/10 06:09:57;;;;;;;2.65;0.25;;;28.20;39.10;;;;;;5057798;28;20527;-47
2022/06/10 06:12:24;;;;;;;0.80;0.10;;;28.20;39.10;;;;;;5053816;28;20049;-49
2022/06/10 06:14:51;;;;;;;3.60;0.20;;;28.20;39.50;;;;;;5056931;28;20772;-47
2022/06/10 06:17:21;;;;;;;3.50;0.30;;;28.20;39.20;;;;;;5058837;28;20048;-49
2022/06/10 06:19:48;;;;;;;3.40;0.10;;;28.20;39.20;;;;;;5062469;28;20209;-49
2022/06/10 06:22:17;;;;;;;4.15;0.43;;;28.20;39.20;;;;;;5059778;28;20048;-50
2022/06/10 06:24:44;;;;;;;3.30;0.10;;;28.20;39.30;;;;;;5062332;28;20116;-50
2022/06/10 06:27:16;;;;;;;4.60;0.10;;;28.10;39.20;;;;;;5066350;28;20044;-50
2022/06/10 06:29:43;;;;;;;18.10;0.60;;;28.10;39.30;;;;;;5060504;28;20048;-51
2022/06/10 06:32:11;;;;;;;49.83;3.92;;;28.10;39.40;;;;;;5057183;28;20040;-47
2022/06/10 06:34:39;;;;;;;8.68;0.10;;;28.10;39.50;;;;;;5057546;28;20086;-53
2022/06/10 06:37:10;;;;;;;10.95;0.55;;;28.10;39.50;;;;;;5054816;28;20041;-47
2022/06/10 06:39:37;;;;;;;11.73;1.00;;;28.10;39.50;;;;;;5061902;28;20501;-51
2022/06/10 06:42:06;;;;;;;5.82;0.35;;;28.10;39.50;;;;;;5060980;28;20040;-65
2022/06/10 06:44:44;;;;;;;1.80;0.22;;;28.10;39.50;;;;;;5061654;28;20060;-60
2022/06/10 06:47:13;;;;;;;6.72;0.85;;;28.10;39.60;;;;;;5060033;28;20068;-60
2022/06/10 06:49:40;;;;;;;7.20;0.55;;;28.10;39.70;;;;;;5060057;28;20041;-64
2022/06/10 06:52:09;;;;;;;4.55;0.43;;;28.10;39.70;;;;;;5064196;28;20040;-53
2022/06/10 06:54:37;;;;;;;4.72;0.85;;;28.20;39.70;;;;;;5060173;28;20049;-67
2022/06/10 06:57:06;;;;;;;3.05;0.20;;;28.10;39.60;;;;;;5058700;28;20408;-65
2022/06/10 06:59:34;;;;;;;3.65;0.85;;;28.20;39.60;;;;;;5056897;28;20040;-66
2022/06/10 07:02:03;;;;;;;0.52;0.10;;;28.20;39.60;;;;;;5054533;28;20053;-67
2022/06/10 07:04:30;;;;;;;7.28;0.20;;;28.20;39.50;;;;;;5057964;28;20048;-63
2022/06/10 07:06:58;;;;;;;4.22;1.25;;;28.20;39.50;;;;;;5059687;28;20627;-63
2022/06/10 07:09:25;;;;;;;3.80;0.10;;;28.20;39.50;;;;;;5059485;28;20047;-63
2022/06/10 07:11:54;;;;;;;1.52;0.10;;;28.20;39.50;;;;;;5055726;28;20788;-54
2022/06/10 07:14:22;;;;;;;0.52;0.05;;;28.20;39.40;;;;;;5050136;28;20051;-61
2022/06/10 07:16:51;;;;;;;1.27;0.45;;;28.20;39.30;;;;;;5054325;28;20521;-62
2022/06/10 07:19:20;;;;;;;3.72;0.57;;;28.20;39.20;;;;;;5060775;28;20499;-62
2022/06/10 07:21:48;;;;;;;0.90;0.35;;;28.20;39.20;;;;;;5059015;28;20064;-61
2022/06/10 07:24:15;;;;;;;0.82;0.47;;;28.20;39.10;;;;;;5057827;28;20056;-63
2022/06/10 07:26:43;;;;;;;1.85;0.15;;;28.20;39.10;;;;;;5053414;28;20048;-52
2022/06/10 07:29:11;;;;;;;1.08;0.20;;;28.30;39.10;;;;;;5052356;28;20072;-55
2022/06/10 07:31:41;;;;;;;1.58;0.15;;;28.20;39.00;;;;;;5053337;28;20045;-61
2022/06/10 07:34:09;;;;;;;3.30;0.10;;;28.20;39.10;;;;;;5055095;28;20049;-59
2022/06/10 07:36:38;;;;;;;1.92;0.10;;;28.30;39.20;;;;;;5052083;28;20119;-59
2022/06/10 07:39:07;;;;;;;2.70;0.65;;;28.20;39.00;;;;;;5050191;28;20029;-53
2022/06/10 07:44:20;;;;;;;1.07;0.30;;;28.30;39.20;;;;;;5059271;28;20049;-66
2022/06/10 07:46:49;;;;;;;2.58;0.35;;;28.30;39.20;;;;;;5054899;28;20572;-57
2022/06/10 07:49:17;;;;;;;1.63;0.10;;;28.30;39.00;;;;;;5052962;28;20045;-64
2022/06/10 07:51:46;;;;;;;0.45;0.10;;;28.30;38.90;;;;;;5060010;28;20032;-62
2022/06/10 07:54:14;;;;;;;1.98;0.25;;;28.30;38.70;;;;;;5052382;28;20404;-62
2022/06/10 07:56:42;;;;;;;3.83;0.52;;;28.30;38.70;;;;;;5057995;28;20052;-62
2022/06/10 07:59:10;;;;;;;2.78;0.55;;;28.30;38.60;;;;;;5057765;28;20104;-71
2022/06/10 08:01:38;;;;;;;5.72;0.10;;;28.30;39.20;;;;;;5063210;28;20041;-63
2022/06/10 08:04:08;;;;;;;3.42;0.17;;;28.30;38.60;;;;;;5060099;28;20040;-71
2022/06/10 08:06:39;;;;;;;2.60;0.63;;;28.30;38.50;;;;;;5055985;28;20045;-67
2022/06/10 08:09:09;;;;;;;3.30;0.10;;;28.30;38.50;;;;;;5059651;28;20041;-72
2022/06/10 08:11:37;;;;;;;3.53;0.10;;;28.30;38.50;;;;;;5057971;28;20041;-66
2022/06/10 08:14:05;;;;;;;1.98;0.10;;;28.30;38.60;;;;;;5060774;28;20527;-73
2022/06/10 08:16:33;;;;;;;1.08;0.10;;;28.30;38.70;;;;;;5060913;28;20044;-70
2022/06/10 08:19:00;;;;;;;1.95;0.00;;;28.30;38.60;;;;;;5068141;28;20079;-69
2022/06/10 08:24:11;;;;;;;0.93;0.13;;;28.30;38.50;;;;;;4992040;28;20054;-61
2022/06/10 08:26:38;;;;;;;4.85;0.10;;;28.30;38.40;;;;;;4993920;28;20124;-60
2022/06/10 08:29:07;;;;;;;1.95;0.10;;;28.30;38.40;;;;;;4999629;28;20833;-62
2022/06/10 08:31:35;;;;;;;0.93;0.32;;;28.30;38.20;;;;;;5000171;28;20053;-61
2022/06/10 08:34:03;;;;;;;1.75;0.00;;;28.40;38.40;;;;;;5000209;28;20041;-68
2022/06/10 08:36:31;;;;;;;6.80;0.25;;;28.40;38.50;;;;;;5002062;28;20042;-63
2022/06/10 08:38:58;;;;;;;2.28;0.13;;;28.40;38.60;;;;;;4998850;28;20052;-63
2022/06/10 08:41:34;;;;;;;4.47;0.10;;;28.40;38.30;;;;;;4999140;28;20494;-60
2022/06/10 08:44:10;;;;;;;4.85;0.55;;;28.40;38.30;;;;;;5000961;28;20058;-59
2022/06/10 08:47:17;;;;;;;2.15;0.95;;;28.40;38.10;;;;;;4998395;28;20129;-66
2022/06/10 08:50:13;;;;;;;1.75;0.08;;;28.40;38.10;;;;;;4925334;29;20056;-60
2022/06/10 08:52:50;;;;;;;2.05;0.10;;;28.30;37.70;;;;;;4922224;29;20166;-63
2022/06/10 08:55:40;;;;;;;0.22;0.22;;;28.30;37.60;;;;;;4928607;29;20650;-64
2022/06/10 08:58:15;;;;;;;0.98;0.10;;;28.40;37.60;;;;;;4925872;29;20412;-65
2022/06/10 09:00:43;;;;;;;1.48;0.00;;;28.30;37.30;;;;;;4932161;28;20054;-63
2022/06/10 09:03:17;;;;;;;0.38;0.10;;;28.40;37.10;;;;;;4979274;28;20105;-63
2022/06/10 09:05:48;;;;;;;0.65;0.00;;;28.30;37.10;;;;;;4983918;28;20629;-59
2022/06/10 09:08:18;;;;;;;0.65;0.05;;;28.40;37.10;;;;;;4962231;28;20145;-67
2022/06/10 09:10:50;;;;;;;0.98;0.00;;;28.40;36.90;;;;;;4985804;28;20078;-62
2022/06/10 09:13:31;;;;;;;3.80;0.10;;;28.40;36.70;;;;;;4985357;28;20085;-63
2022/06/10 09:16:11;;;;;;;0.20;0.20;;;28.40;36.80;;;;;;4978842;28;20042;-67
2022/06/10 09:18:48;;;;;;;0.40;0.10;;;28.40;36.70;;;;;;4980150;28;20177;-68
2022/06/10 09:21:21;;;;;;;0.25;0.00;;;28.40;36.90;;;;;;4977832;28;20225;-62
2022/06/10 09:23:48;;;;;;;0.03;0.00;;;28.40;36.90;;;;;;4983302;28;20054;-60
2022/06/10 09:26:29;;;;;;;4.82;0.10;;;28.40;36.60;;;;;;5012332;28;20056;-59
2022/06/10 09:28:58;;;;;;;0.65;0.10;;;28.40;36.50;;;;;;5054187;28;20601;-57
2022/06/10 09:31:40;;;;;;;1.27;0.10;;;28.40;36.60;;;;;;5062979;28;20044;-68
2022/06/10 09:34:19;;;;;;;1.83;0.10;;;28.40;36.70;;;;;;5055689;28;20347;-63
2022/06/10 09:36:55;;;;;;;2.20;0.17;;;28.40;36.90;;;;;;5060364;28;20509;-62
2022/06/10 09:42:25;;;;;;;1.08;0.10;;;28.40;36.70;;;;;;5057723;28;20044;-62
2022/06/10 09:45:01;;;;;;;1.25;0.10;;;28.40;36.70;;;;;;5056217;28;20068;-64
2022/06/10 09:47:38;;;;;;;1.13;0.00;;;28.40;36.50;;;;;;5054369;28;20548;-63
2022/06/10 09:50:14;;;;;;;1.38;0.00;;;28.50;36.40;;;;;;5056571;28;20412;-64
2022/06/10 09:52:55;;;;;;;0.70;0.00;;;28.40;36.20;;;;;;5055711;28;20045;-64
2022/06/10 09:55:46;;;;;;;2.38;0.10;;;28.40;36.30;;;;;;5059683;28;20070;-70
2022/06/10 09:58:28;;;;;;;0.40;0.10;;;28.50;36.60;;;;;;5058062;28;20076;-69
2022/06/10 10:01:04;;;;;;;0.68;0.00;;;28.40;36.60;;;;;;5054423;28;20049;-63
2022/06/10 10:03:41;;;;;;;;;;;28.40;36.80;;;;;;5060826;28;20762;-62
2022/06/10 10:06:17;;;;;;;;;;;28.40;36.80;;;;;;5054760;28;19924;-62
2022/06/10 10:08:57;;;;;;;2.15;0.22;;;28.30;37.20;;;;;;5052621;28;19977;-58
2022/06/10 10:11:32;;;;;;;1.00;0.10;;;28.30;37.50;;;;;;5059038;28;20077;-56
2022/06/10 10:14:12;;;;;;;0.70;0.20;;;28.40;37.60;;;;;;5049462;28;20091;-62
2022/06/10 10:16:50;;;;;;;1.35;0.10;;;28.40;37.70;;;;;;5056311;28;20068;-63
2022/06/10 10:19:53;;;;;;;0.55;0.10;;;28.40;37.70;;;;;;5059733;28;20041;-64
2022/06/10 10:23:00;;;;;;;0.20;0.00;;;28.50;37.80;;;;;;4998390;28;20046;-63
2022/06/10 10:25:28;;;;;;;;;;;28.50;38.00;;;;;;4992920;28;20046;-60
2022/06/10 10:27:56;;;;;;;1.75;0.00;;;28.40;38.20;;;;;;4995450;28;20004;-60
2022/06/10 10:30:31;;;;;;;0.55;0.10;;;28.40;38.30;;;;;;4995164;28;20045;-63
2022/06/10 10:33:04;;;;;;;0.95;0.10;;;28.50;38.40;;;;;;4991089;28;20037;-65
2022/06/10 10:35:34;;;;;;;0.82;0.00;;;28.50;38.40;;;;;;4993285;28;20042;-69
2022/06/10 10:38:04;;;;;;;1.77;0.10;;;28.50;38.30;;;;;;4994018;28;20046;-66
2022/06/10 10:40:37;;;;;;;2.25;0.10;;;28.60;38.30;;;;;;4980389;28;20038;-73
2022/06/10 10:43:10;;;;;;;2.33;0.10;;;28.60;38.40;;;;;;4990942;28;20049;-68
2022/06/10 10:45:40;;;;;;;0.68;0.10;;;28.60;38.40;;;;;;4999254;28;20577;-64
2022/06/10 10:48:17;;;;;;;1.02;0.10;;;28.70;38.50;;;;;;4989393;28;20141;-65
2022/06/10 10:50:58;;;;;;;1.98;0.10;;;28.70;38.50;;;;;;4998076;28;20598;-65
2022/06/10 10:53:30;;;;;;;1.42;0.20;;;28.70;38.70;;;;;;4990880;28;20050;-57
2022/06/10 10:56:01;;;;;;;1.17;0.10;;;28.70;38.70;;;;;;4998804;28;20435;-55
2022/06/10 10:58:32;;;;;;;2.05;0.10;;;28.70;38.70;;;;;;5040768;28;20041;-59
2022/06/10 11:01:03;;;;;;;2.63;0.13;;;28.70;38.60;;;;;;5058447;28;20045;-60
2022/06/10 11:03:35;;;;;;;2.42;0.10;;;28.80;38.70;;;;;;5056647;28;20786;-51
2022/06/10 11:06:07;;;;;;;1.73;0.10;;;28.80;38.70;;;;;;5049072;28;20412;-51
2022/06/10 11:08:36;;;;;;;4.55;0.10;;;28.80;38.70;;;;;;5086404;28;20044;-54
2022/06/10 11:11:22;;;;;;;1.98;0.75;;;28.80;38.80;;;;;;5062204;28;20032;-52
2022/06/10 11:13:53;;;;;;;2.60;0.10;;;28.90;38.70;;;;;;5063135;28;20132;-50
2022/06/10 11:16:38;;;;;;;0.95;0.03;;;28.80;38.60;;;;;;5062949;28;20041;-52
2022/06/10 11:19:41;;;;;;;5.78;0.35;;;28.90;38.50;;;;;;5057974;28;20040;-52
2022/06/10 11:22:19;;;;;;;2.10;0.10;;;28.90;38.60;;;;;;5046239;28;20474;-65
2022/06/10 11:24:50;;;;;;;1.63;0.32;;;28.90;38.60;;;;;;5054806;28;20103;-65
2022/06/10 11:27:28;;;;;;;1.40;0.52;;;28.90;38.60;;;;;;5058788;28;20036;-68
2022/06/10 11:30:05;;;;;;;0.22;0.10;;;28.90;38.50;;;;;;5052284;28;20432;-64
2022/06/10 11:32:37;;;;;;;1.98;0.20;;;29.00;38.30;;;;;;5050587;28;20045;-67
2022/06/10 11:35:29;;;;;;;4.18;0.10;;;29.00;38.20;;;;;;5057059;28;20207;-65
2022/06/10 11:37:59;;;;;;;4.60;0.10;;;29.00;38.10;;;;;;5051986;28;20428;-55
2022/06/10 11:40:35;;;;;;;0.73;0.30;;;29.00;38.90;;;;;;5057614;28;20040;-60
2022/06/10 11:43:08;;;;;;;2.35;0.20;;;29.10;38.20;;;;;;5059969;28;20042;-47
2022/06/10 11:45:41;;;;;;;2.92;0.00;;;29.10;38.10;;;;;;5057069;28;20047;-46
2022/06/10 11:48:17;;;;;;;1.17;0.10;;;29.10;38.20;;;;;;5055354;28;20036;-47
2022/06/10 11:50:57;;;;;;;1.25;0.10;;;29.20;38.10;;;;;;5052292;28;20045;-49
2022/06/10 11:53:34;;;;;;;2.60;0.75;;;29.20;38.10;;;;;;5054562;28;20033;-48
2022/06/10 12:01:47;;;;;;;0.35;0.20;;;29.30;38.90;;;;;;4992511;28;20082;-55
2022/06/10 12:04:21;;;;;;;4.47;0.10;;;29.30;38.30;;;;;;4992907;28;20050;-54
2022/06/10 12:06:52;;;;;;;0.55;0.08;;;29.30;38.30;;;;;;4987645;28;20049;-55
2022/06/10 12:09:27;;;;;;;1.50;0.20;;;29.40;38.20;;;;;;4992933;28;20119;-55
2022/06/10 12:12:06;;;;;;;0.45;0.08;;;29.40;38.00;;;;;;4987457;28;20050;-50
2022/06/10 12:14:38;;;;;;;1.40;0.30;;;29.50;38.10;;;;;;4985750;28;20820;-51
2022/06/10 12:17:11;;;;;;;2.03;0.32;;;29.50;38.10;;;;;;4991167;28;20507;-54
2022/06/10 12:19:43;;;;;;;2.70;0.38;;;29.50;38.00;;;;;;4998304;28;20137;-52
2022/06/10 12:22:13;;;;;;;2.78;0.20;;;29.60;38.10;;;;;;4994552;28;20504;-53
2022/06/10 12:24:40;;;;;;;0.70;0.10;;;29.60;38.20;;;;;;4987743;28;20053;-49
2022/06/10 12:27:15;;;;;;;2.35;0.10;;;29.60;37.70;;;;;;4990410;28;20493;-57
2022/06/10 12:29:47;;;;;;;2.10;0.10;;;29.60;37.60;;;;;;4987270;28;20065;-57
2022/06/10 12:32:25;;;;;;;1.27;0.10;;;29.60;37.60;;;;;;4992176;28;20089;-57
2022/06/10 12:34:59;;;;;;;0.75;0.20;;;29.70;37.60;;;;;;5007381;28;20068;-53
2022/06/10 12:37:38;;;;;;;2.15;0.57;;;29.70;37.70;;;;;;5054998;28;20572;-57
2022/06/10 12:40:13;;;;;;;1.42;0.10;;;29.70;37.70;;;;;;5056072;28;20039;-57
2022/06/10 12:42:46;;;;;;;2.17;0.47;;;29.70;37.80;;;;;;5047825;28;20045;-57
2022/06/10 12:45:24;;;;;;;0.63;0.32;;;29.70;37.70;;;;;;5054072;28;20056;-57
2022/06/10 12:47:57;;;;;;;4.57;0.17;;;29.70;37.70;;;;;;5049535;28;20114;-51
2022/06/10 12:50:27;;;;;;;1.80;0.10;;;29.70;37.50;;;;;;5048316;28;20114;-56
2022/06/10 12:53:35;;;;;;;1.95;0.43;;;29.80;37.50;;;;;;5054959;28;20040;-57
2022/06/10 12:56:19;;;;;;;0.35;0.32;;;29.80;37.50;;;;;;5054871;28;20143;-56
2022/06/10 12:58:50;;;;;;;0.38;0.10;;;29.80;37.60;;;;;;5054025;28;20535;-54
2022/06/10 13:01:42;;;;;;;0.45;0.10;;;29.80;37.70;;;;;;5050041;28;20048;-54
2022/06/10 13:04:14;;;;;;;1.20;0.30;;;29.80;37.60;;;;;;5057204;28;20037;-54
2022/06/10 13:07:00;;;;;;;1.67;0.03;;;29.80;37.60;;;;;;5056285;28;20048;-57
2022/06/10 13:09:31;;;;;;;0.43;0.17;;;29.80;37.40;;;;;;5057036;28;20119;-57
2022/06/10 13:12:00;;;;;;;0.60;0.05;;;29.80;37.50;;;;;;5057082;28;20505;-56
2022/06/10 13:14:47;;;;;;;1.20;0.10;;;29.80;37.70;;;;;;5054133;28;20037;-67
2022/06/10 13:17:24;;;;;;;2.05;0.15;;;29.80;37.70;;;;;;5055342;28;20048;-61
2022/06/10 13:20:23;;;;;;;4.45;0.00;;;29.80;37.90;;;;;;5066445;28;20501;-68
2022/06/10 13:23:10;;;;;;;0.40;0.00;;;29.80;37.90;;;;;;5062987;28;20048;-64
2022/06/10 13:25:40;;;;;;;2.83;0.00;;;29.80;38.00;;;;;;5058399;28;20045;-65
2022/06/10 13:28:20;;;;;;;8.32;0.30;;;29.80;38.10;;;;;;5061957;28;20048;-65
2022/06/10 13:30:49;;;;;;;2.53;0.10;;;29.90;38.10;;;;;;5057211;28;20041;-64
2022/06/10 13:33:18;;;;;;;5.20;0.10;;;29.80;38.00;;;;;;5061127;28;20161;-66
2022/06/10 13:35:55;;;;;;;0.70;0.10;;;29.90;38.20;;;;;;5054098;28;20045;-68